Time;durP1;ratioP1;P1;durP2;ratioP2;P2;SDS_P1;SDS_P2;PMS_P1;PMS_P2;Temp;Humidity;BMP_temperature;BMP_pressure;BME280_temperature;BME280_humidity;BME280_pressure;Samples;Min_cycle;Max_cycle;Signal;HPM_P1;HPM_P2
2023/02/07 00:00:22;;;;;;;28.73;20.75;;;2.20;99.90;;;;;;4895979;28;20293;-76
2023/02/07 00:02:50;;;;;;;26.23;20.25;;;2.20;99.90;;;;;;4895237;28;20269;-76
2023/02/07 00:05:17;;;;;;;23.80;19.63;;;2.20;99.90;;;;;;4896375;28;20629;-80
2023/02/07 00:07:44;;;;;;;24.92;18.50;;;2.10;99.90;;;;;;4895000;28;20238;-76
2023/02/07 00:10:11;;;;;;;23.15;17.05;;;2.20;99.90;;;;;;4895635;28;20719;-76
2023/02/07 00:12:38;;;;;;;27.02;18.00;;;2.20;99.90;;;;;;4901586;28;20236;-76
2023/02/07 00:15:06;;;;;;;20.83;18.08;;;2.10;99.90;;;;;;4914309;28;20221;-76
2023/02/07 00:17:35;;;;;;;23.58;16.33;;;2.10;99.90;;;;;;4906196;28;20326;-76
2023/02/07 00:20:02;;;;;;;28.23;17.20;;;2.10;99.90;;;;;;4913930;28;20225;-76
2023/02/07 00:22:29;;;;;;;26.45;18.65;;;2.10;99.90;;;;;;4910091;28;20333;-76
2023/02/07 00:24:56;;;;;;;27.52;18.15;;;2.10;99.90;;;;;;4913328;28;20242;-76
2023/02/07 00:27:23;;;;;;;23.63;17.92;;;2.10;99.90;;;;;;4914288;28;20706;-76
2023/02/07 00:29:50;;;;;;;23.75;18.27;;;2.10;99.90;;;;;;4913538;29;20233;-80
2023/02/07 00:32:17;;;;;;;26.83;17.85;;;2.10;99.90;;;;;;4914745;29;20230;-81
2023/02/07 00:34:49;;;;;;;21.92;17.10;;;2.10;99.90;;;;;;4913543;28;20241;-80
2023/02/07 00:37:16;;;;;;;24.15;18.15;;;2.10;99.90;;;;;;4913527;28;20233;-80
2023/02/07 00:39:43;;;;;;;26.90;18.00;;;2.10;99.90;;;;;;4913659;28;20242;-80
2023/02/07 00:42:10;;;;;;;24.13;17.75;;;2.00;99.90;;;;;;4913990;28;20225;-80
2023/02/07 00:44:37;;;;;;;23.30;17.55;;;2.00;99.90;;;;;;4913715;29;20279;-79
2023/02/07 00:47:05;;;;;;;27.73;17.95;;;2.00;99.90;;;;;;4914142;28;20268;-79
2023/02/07 00:49:32;;;;;;;21.05;17.45;;;2.00;99.90;;;;;;4912767;28;20674;-80
2023/02/07 00:52:00;;;;;;;20.08;15.88;;;2.00;99.90;;;;;;4894149;28;20233;-79
2023/02/07 00:54:27;;;;;;;17.33;15.40;;;2.00;99.90;;;;;;4908439;28;20233;-75
2023/02/07 00:56:56;;;;;;;25.35;18.40;;;2.00;99.90;;;;;;4912942;28;20581;-75
2023/02/07 00:59:23;;;;;;;25.27;18.48;;;2.00;99.90;;;;;;4913657;28;20262;-75
2023/02/07 01:01:50;;;;;;;26.77;18.65;;;2.00;99.90;;;;;;4912346;28;20241;-75
2023/02/07 01:04:17;;;;;;;27.55;20.05;;;1.90;99.90;;;;;;4913266;28;20977;-75
2023/02/07 01:06:44;;;;;;;24.35;19.58;;;2.00;99.90;;;;;;4913548;28;20676;-75
2023/02/07 01:09:13;;;;;;;27.95;21.85;;;1.90;99.90;;;;;;4913930;28;20232;-75
2023/02/07 01:11:40;;;;;;;31.17;20.52;;;1.80;99.90;;;;;;4913040;28;20323;-76
2023/02/07 01:14:07;;;;;;;33.75;22.67;;;1.70;99.90;;;;;;4905467;28;20226;-79
2023/02/07 01:16:35;;;;;;;32.00;24.30;;;1.70;99.90;;;;;;4914024;28;20245;-80
2023/02/07 01:19:05;;;;;;;28.83;24.10;;;1.60;99.90;;;;;;4913609;28;20241;-79
2023/02/07 01:21:32;;;;;;;34.83;25.75;;;1.60;99.90;;;;;;4914245;28;20238;-79
2023/02/07 01:23:59;;;;;;;39.08;27.85;;;1.60;99.90;;;;;;4912231;28;20271;-79
2023/02/07 01:26:28;;;;;;;33.88;28.30;;;1.50;99.90;;;;;;4913933;29;20264;-76
2023/02/07 01:28:56;;;;;;;33.97;25.67;;;1.50;99.90;;;;;;4913358;28;20623;-76
2023/02/07 01:31:24;;;;;;;38.33;27.23;;;1.50;99.90;;;;;;4908772;28;20608;-75
2023/02/07 01:33:54;;;;;;;30.60;25.10;;;1.50;99.90;;;;;;4894114;28;20232;-76
2023/02/07 01:36:22;;;;;;;32.75;25.58;;;1.40;99.90;;;;;;4879941;28;20234;-76
2023/02/07 01:38:49;;;;;;;37.42;28.05;;;1.50;99.90;;;;;;4913489;28;20272;-77
2023/02/07 01:41:16;;;;;;;34.70;26.60;;;1.40;99.90;;;;;;4916578;28;20249;-79
2023/02/07 01:44:00;;;;;;;37.88;25.65;;;1.40;99.90;;;;;;4916434;28;20234;-76
2023/02/07 01:46:29;;;;;;;43.88;28.08;;;1.40;99.90;;;;;;4916111;28;20240;-76
2023/02/07 01:48:58;;;;;;;54.15;30.75;;;1.40;99.90;;;;;;4976343;28;20258;-79
2023/02/07 01:51:27;;;;;;;52.58;31.75;;;1.30;99.90;;;;;;4901092;28;20238;-76
2023/02/07 01:53:58;;;;;;;45.15;30.58;;;1.30;99.90;;;;;;4878205;28;20235;-76
2023/02/07 01:56:26;;;;;;;46.10;27.85;;;1.30;99.90;;;;;;4879376;28;20235;-76
2023/02/07 01:58:59;;;;;;;45.97;31.17;;;1.20;99.90;;;;;;4874136;28;20245;-76
2023/02/07 02:01:26;;;;;;;35.45;28.85;;;1.20;99.90;;;;;;4879396;29;20655;-79
2023/02/07 02:03:55;;;;;;;38.00;26.25;;;1.20;99.90;;;;;;4878602;28;20235;-79
2023/02/07 02:06:24;;;;;;;40.45;26.92;;;1.20;99.90;;;;;;4879081;28;20310;-79
2023/02/07 02:08:55;;;;;;;38.53;27.38;;;1.20;99.90;;;;;;4878455;28;20263;-76
2023/02/07 02:11:49;;;;;;;37.00;28.20;;;1.20;99.90;;;;;;4878794;29;20326;-76
2023/02/07 02:14:32;;;;;;;38.28;25.33;;;1.30;99.90;;;;;;4878119;29;20649;-79
2023/02/07 02:17:11;;;;;;;41.35;28.17;;;1.30;99.90;;;;;;4878146;28;20258;-79
2023/02/07 02:20:09;;;;;;;38.25;25.88;;;1.20;99.90;;;;;;4879047;28;20235;-79
2023/02/07 02:22:58;;;;;;;32.70;26.20;;;1.20;99.90;;;;;;4878650;28;20227;-79
2023/02/07 02:25:56;;;;;;;40.13;27.08;;;1.20;99.90;;;;;;4878913;28;20231;-79
2023/02/07 02:28:53;;;;;;;35.13;25.38;;;1.20;99.90;;;;;;4882956;28;20275;-79
2023/02/07 02:31:37;;;;;;;34.55;24.85;;;1.30;99.90;;;;;;4877487;29;20235;-76
2023/02/07 02:34:10;;;;;;;37.47;28.25;;;1.30;99.90;;;;;;4877310;28;20690;-75
2023/02/07 02:36:45;;;;;;;37.17;27.45;;;1.30;99.90;;;;;;4894791;29;20253;-79
2023/02/07 02:39:20;;;;;;;38.00;24.88;;;1.30;99.90;;;;;;4897629;28;20237;-76
2023/02/07 02:41:58;;;;;;;36.38;24.85;;;1.30;99.90;;;;;;4896177;28;20232;-76
2023/02/07 02:44:31;;;;;;;42.30;26.63;;;1.30;99.90;;;;;;4896640;28;20237;-78
2023/02/07 02:46:59;;;;;;;39.55;27.83;;;1.20;99.90;;;;;;4896758;28;20226;-79
2023/02/07 02:49:29;;;;;;;39.05;25.77;;;1.30;99.90;;;;;;4895881;28;20241;-80
2023/02/07 02:51:57;;;;;;;37.08;26.40;;;1.30;99.90;;;;;;4896747;29;20245;-80
2023/02/07 02:54:29;;;;;;;34.20;25.05;;;1.30;99.90;;;;;;4896543;28;20237;-79
2023/02/07 02:57:10;;;;;;;35.53;26.02;;;1.30;99.90;;;;;;4896977;28;20734;-81
2023/02/07 03:00:00;;;;;;;35.10;24.98;;;1.30;99.90;;;;;;4896232;29;20581;-76
2023/02/07 03:02:39;;;;;;;38.65;25.80;;;1.30;99.90;;;;;;4896177;29;20284;-77
2023/02/07 03:05:34;;;;;;;34.45;26.38;;;1.40;99.90;;;;;;4896840;28;20277;-77
2023/02/07 03:08:12;;;;;;;32.50;25.13;;;1.40;99.90;;;;;;4897073;29;20230;-75
2023/02/07 03:10:47;;;;;;;34.63;25.63;;;1.30;99.90;;;;;;4896501;28;20226;-80
2023/02/07 03:13:21;;;;;;;31.70;23.48;;;1.40;99.90;;;;;;4897519;28;20311;-79
2023/02/07 03:16:00;;;;;;;28.25;23.10;;;1.30;99.90;;;;;;4897186;28;20649;-80
2023/02/07 03:18:34;;;;;;;34.30;23.02;;;1.40;99.90;;;;;;4895624;28;20616;-77
2023/02/07 03:21:08;;;;;;;28.08;21.63;;;1.30;99.90;;;;;;4896334;28;20250;-80
2023/02/07 03:23:37;;;;;;;28.98;21.60;;;1.40;99.90;;;;;;4896809;28;21707;-80
2023/02/07 03:26:06;;;;;;;30.38;22.95;;;1.40;99.90;;;;;;4896764;28;20240;-79
2023/02/07 03:28:34;;;;;;;27.92;19.23;;;1.40;99.90;;;;;;4896329;28;20246;-80
2023/02/07 03:31:02;;;;;;;24.55;18.45;;;1.30;99.90;;;;;;4896040;29;20230;-80
2023/02/07 03:33:30;;;;;;;26.13;20.25;;;1.40;99.90;;;;;;4895499;28;20226;-76
2023/02/07 03:36:07;;;;;;;24.90;17.92;;;1.40;99.90;;;;;;4897578;28;20757;-80
2023/02/07 03:38:34;;;;;;;31.08;20.20;;;1.40;99.90;;;;;;4897175;28;20234;-80
2023/02/07 03:41:06;;;;;;;21.75;17.80;;;1.30;99.90;;;;;;4900832;29;20285;-77
2023/02/07 03:43:36;;;;;;;27.02;18.58;;;1.30;99.90;;;;;;4896012;28;20304;-76
2023/02/07 03:46:03;;;;;;;24.33;20.00;;;1.30;99.90;;;;;;4898545;28;20257;-80
2023/02/07 03:48:31;;;;;;;25.73;18.00;;;1.30;99.90;;;;;;4898442;28;20560;-79
2023/02/07 03:50:58;;;;;;;31.40;18.50;;;1.30;99.90;;;;;;4898712;29;20237;-80
2023/02/07 03:53:27;;;;;;;24.15;18.15;;;1.30;99.90;;;;;;4895536;28;20293;-77
2023/02/07 03:55:54;;;;;;;23.10;16.73;;;1.30;99.90;;;;;;4896555;28;20234;-81
2023/02/07 03:58:33;;;;;;;24.75;19.30;;;1.30;99.90;;;;;;4895910;28;20234;-80
2023/02/07 04:01:06;;;;;;;23.00;18.40;;;1.30;99.90;;;;;;4886807;28;20240;-79
2023/02/07 04:03:37;;;;;;;33.00;20.08;;;1.30;99.90;;;;;;4894938;28;20292;-80
2023/02/07 04:06:07;;;;;;;27.30;18.90;;;1.30;99.90;;;;;;4896585;28;20541;-77
2023/02/07 04:08:35;;;;;;;27.95;19.70;;;1.30;99.90;;;;;;4895303;28;20330;-77
2023/02/07 04:11:06;;;;;;;27.33;22.27;;;1.30;99.90;;;;;;4895766;28;20240;-77
2023/02/07 04:13:33;;;;;;;29.30;20.00;;;1.30;99.90;;;;;;4895261;28;20692;-77
2023/02/07 04:16:00;;;;;;;27.13;20.27;;;1.30;99.90;;;;;;4895694;28;20308;-77
2023/02/07 04:18:27;;;;;;;31.10;20.20;;;1.30;99.90;;;;;;4895250;29;20241;-77
2023/02/07 04:21:01;;;;;;;26.27;19.20;;;1.30;99.90;;;;;;4895446;28;20561;-77
2023/02/07 04:23:28;;;;;;;25.15;19.65;;;1.30;99.90;;;;;;4895152;28;20706;-77
2023/02/07 04:25:56;;;;;;;27.58;20.20;;;1.30;99.90;;;;;;4895595;28;20227;-77
2023/02/07 04:28:24;;;;;;;28.65;19.98;;;1.30;99.90;;;;;;4895675;28;20237;-75
2023/02/07 04:30:51;;;;;;;24.42;18.17;;;1.30;99.90;;;;;;4895586;29;20241;-75
2023/02/07 04:33:19;;;;;;;21.73;17.80;;;1.20;99.90;;;;;;4895464;28;20230;-76
2023/02/07 04:35:47;;;;;;;28.73;20.60;;;1.30;99.90;;;;;;4895213;28;20238;-76
2023/02/07 04:38:14;;;;;;;25.33;18.45;;;1.20;99.90;;;;;;4895719;28;20245;-76
2023/02/07 04:40:41;;;;;;;30.08;19.35;;;1.20;99.90;;;;;;4895040;29;20574;-80
2023/02/07 04:43:09;;;;;;;27.10;20.40;;;1.20;99.90;;;;;;4894598;28;20225;-76
2023/02/07 04:45:36;;;;;;;23.63;19.40;;;1.20;99.90;;;;;;4894964;28;20238;-79
2023/02/07 04:48:04;;;;;;;32.25;22.60;;;1.20;99.90;;;;;;4895329;28;20237;-76
2023/02/07 04:50:31;;;;;;;26.77;19.90;;;1.20;99.90;;;;;;4895235;29;20313;-76
2023/02/07 04:52:57;;;;;;;23.73;19.73;;;1.20;99.90;;;;;;4895330;28;20300;-80
2023/02/07 04:55:27;;;;;;;27.35;20.33;;;1.20;99.90;;;;;;4895519;28;20265;-80
2023/02/07 04:57:54;;;;;;;24.63;17.33;;;1.20;99.90;;;;;;4895199;28;20241;-80
2023/02/07 05:00:22;;;;;;;24.88;19.50;;;1.20;99.90;;;;;;4895140;28;20331;-79
2023/02/07 05:02:50;;;;;;;25.15;18.85;;;1.20;99.90;;;;;;4894286;29;20230;-75
2023/02/07 05:05:17;;;;;;;29.13;20.40;;;1.10;99.90;;;;;;4895031;28;20234;-76
2023/02/07 05:07:44;;;;;;;28.95;20.08;;;1.10;99.90;;;;;;4894658;29;20269;-75
2023/02/07 05:10:11;;;;;;;27.83;19.67;;;1.10;99.90;;;;;;4894457;28;20246;-79
2023/02/07 05:12:38;;;;;;;28.92;20.95;;;1.10;99.90;;;;;;4897111;29;20715;-79
2023/02/07 05:15:07;;;;;;;22.58;18.92;;;1.10;99.90;;;;;;4898613;29;20622;-79
2023/02/07 05:17:37;;;;;;;25.15;19.75;;;1.10;99.90;;;;;;4898220;28;20253;-76
2023/02/07 05:20:05;;;;;;;26.95;20.70;;;1.10;99.90;;;;;;4899006;28;20234;-76
2023/02/07 05:22:32;;;;;;;32.08;20.35;;;1.10;99.90;;;;;;4898326;28;20696;-76
2023/02/07 05:24:59;;;;;;;27.90;20.38;;;1.10;99.90;;;;;;4898247;29;20715;-76
2023/02/07 05:27:26;;;;;;;22.52;18.67;;;1.10;99.90;;;;;;4898090;29;20372;-76
2023/02/07 05:29:53;;;;;;;26.50;19.40;;;1.10;99.90;;;;;;4897711;28;20242;-76
2023/02/07 05:35:06;;;;;;;25.40;17.90;;;1.10;99.90;;;;;;4898145;28;20241;-80
2023/02/07 05:37:33;;;;;;;26.27;19.30;;;1.10;99.90;;;;;;4897462;28;20332;-76
2023/02/07 05:40:01;;;;;;;30.45;20.75;;;1.10;99.90;;;;;;4897319;28;20538;-76
2023/02/07 05:42:28;;;;;;;27.23;19.15;;;1.10;99.90;;;;;;4897933;28;20225;-76
2023/02/07 05:44:55;;;;;;;28.75;20.50;;;1.10;99.90;;;;;;4897216;28;20230;-76
2023/02/07 05:47:22;;;;;;;27.45;19.90;;;1.10;99.90;;;;;;4897773;28;20319;-76
2023/02/07 05:49:49;;;;;;;24.48;20.17;;;1.10;99.90;;;;;;4894856;28;20241;-76
2023/02/07 05:52:20;;;;;;;23.75;19.08;;;1.10;99.90;;;;;;4897961;29;20236;-77
2023/02/07 05:54:47;;;;;;;24.45;19.10;;;1.10;99.90;;;;;;4897134;28;20708;-77
2023/02/07 05:57:14;;;;;;;25.70;19.50;;;1.00;99.90;;;;;;4898131;29;20226;-77
2023/02/07 05:59:42;;;;;;;32.33;20.15;;;1.00;99.90;;;;;;4899488;28;20680;-79
2023/02/07 06:02:09;;;;;;;27.10;19.58;;;1.10;99.90;;;;;;4899902;28;20238;-78
2023/02/07 06:04:36;;;;;;;25.15;18.88;;;1.00;99.90;;;;;;4898151;28;20242;-76
2023/02/07 06:07:03;;;;;;;23.17;20.70;;;1.00;99.90;;;;;;4897400;28;20230;-77
2023/02/07 06:09:34;;;;;;;26.58;20.55;;;1.00;99.90;;;;;;4897939;28;20238;-76
2023/02/07 06:12:05;;;;;;;29.23;22.98;;;1.10;99.90;;;;;;4897586;29;20292;-78
2023/02/07 06:14:32;;;;;;;26.50;21.95;;;1.10;99.90;;;;;;4897825;28;20280;-78
2023/02/07 06:16:59;;;;;;;28.00;22.25;;;1.00;99.90;;;;;;4896959;29;20230;-76
2023/02/07 06:19:28;;;;;;;29.85;23.65;;;1.00;99.90;;;;;;4897329;28;20234;-76
2023/02/07 06:21:55;;;;;;;30.30;21.60;;;1.00;99.90;;;;;;4897211;28;20576;-76
2023/02/07 06:24:22;;;;;;;26.63;21.40;;;1.10;99.90;;;;;;4896482;28;20234;-76
2023/02/07 06:26:50;;;;;;;30.00;22.65;;;1.10;99.90;;;;;;4897259;28;20226;-75
2023/02/07 06:29:30;;;;;;;29.42;22.83;;;1.00;99.90;;;;;;4898404;28;20241;-77
2023/02/07 06:31:57;;;;;;;34.13;24.15;;;1.00;99.90;;;;;;4897466;28;20265;-77
2023/02/07 06:34:24;;;;;;;30.13;23.45;;;1.00;99.90;;;;;;4897408;28;20223;-77
2023/02/07 06:36:51;;;;;;;33.53;26.08;;;1.00;99.90;;;;;;4896711;28;20233;-77
2023/02/07 06:39:20;;;;;;;29.70;21.15;;;1.00;99.90;;;;;;4897245;28;20238;-77
2023/02/07 06:41:48;;;;;;;27.30;21.92;;;1.00;99.90;;;;;;4896101;28;20243;-77
2023/02/07 06:44:16;;;;;;;33.63;20.75;;;1.00;99.90;;;;;;4897055;28;20314;-76
2023/02/07 06:46:44;;;;;;;24.10;20.00;;;0.90;99.90;;;;;;4896670;28;20248;-77
2023/02/07 06:49:11;;;;;;;29.30;19.85;;;0.90;99.90;;;;;;4896396;28;20617;-76
2023/02/07 06:51:41;;;;;;;28.58;21.73;;;0.90;99.90;;;;;;4877646;29;20237;-77
2023/02/07 06:54:09;;;;;;;27.33;20.52;;;0.90;99.90;;;;;;4895771;28;20236;-77
2023/02/07 06:56:37;;;;;;;32.50;22.35;;;1.00;99.90;;;;;;4887501;28;20238;-76
2023/02/07 06:59:04;;;;;;;29.75;20.05;;;1.00;99.90;;;;;;4896052;29;20230;-75
2023/02/07 07:01:33;;;;;;;36.25;22.25;;;0.90;99.90;;;;;;4897142;29;20246;-76
2023/02/07 07:04:00;;;;;;;29.33;23.13;;;0.90;99.90;;;;;;4896462;29;20230;-77
2023/02/07 07:06:28;;;;;;;31.40;23.73;;;0.90;99.90;;;;;;4897099;28;20292;-80
2023/02/07 07:08:55;;;;;;;29.35;21.92;;;0.90;99.90;;;;;;4898229;28;20230;-76
2023/02/07 07:11:22;;;;;;;31.15;21.95;;;1.00;99.90;;;;;;4898638;28;20325;-77
2023/02/07 07:13:50;;;;;;;30.88;23.30;;;1.00;99.90;;;;;;4897998;28;20230;-77
2023/02/07 07:19:21;;;;;;;29.02;21.60;;;1.00;99.90;;;;;;4908038;28;20226;-77
2023/02/07 07:21:48;;;;;;;25.52;22.33;;;1.00;99.90;;;;;;4896878;28;20632;-77
2023/02/07 07:24:15;;;;;;;31.83;24.02;;;1.00;99.90;;;;;;4895721;28;20234;-81
2023/02/07 07:26:42;;;;;;;33.97;23.92;;;1.00;99.90;;;;;;4896342;28;20230;-75
2023/02/07 07:29:10;;;;;;;31.65;21.95;;;1.00;99.90;;;;;;4900383;28;20241;-76
2023/02/07 07:31:37;;;;;;;33.25;24.27;;;0.90;99.90;;;;;;4896790;28;20313;-80
2023/02/07 07:34:04;;;;;;;30.08;23.65;;;1.00;99.90;;;;;;4896342;28;20633;-78
2023/02/07 07:36:43;;;;;;;34.00;22.58;;;1.00;99.90;;;;;;4895869;28;20234;-76
2023/02/07 07:39:10;;;;;;;25.67;22.08;;;1.00;99.90;;;;;;4896339;28;20230;-81
2023/02/07 07:41:38;;;;;;;36.50;22.77;;;1.00;99.90;;;;;;4896632;28;20234;-80
2023/02/07 07:44:07;;;;;;;28.80;21.83;;;1.00;99.90;;;;;;4895991;28;20234;-80
2023/02/07 07:46:34;;;;;;;34.10;23.13;;;1.00;99.90;;;;;;4895943;28;20628;-80
2023/02/07 07:49:09;;;;;;;38.17;23.75;;;1.00;99.90;;;;;;4894689;28;20292;-80
2023/02/07 07:51:36;;;;;;;33.05;24.92;;;1.00;99.90;;;;;;4896186;28;20238;-80
2023/02/07 07:54:04;;;;;;;31.23;24.15;;;1.10;99.90;;;;;;4896109;28;20230;-81
2023/02/07 07:56:34;;;;;;;34.55;24.90;;;1.10;99.90;;;;;;4896415;28;20230;-80
2023/02/07 07:59:03;;;;;;;31.58;23.30;;;1.20;99.90;;;;;;4895348;28;20564;-76
2023/02/07 08:01:30;;;;;;;33.78;23.80;;;1.20;99.90;;;;;;4895826;29;20254;-76
2023/02/07 08:03:57;;;;;;;29.33;23.13;;;1.20;99.90;;;;;;4895719;28;20234;-80
2023/02/07 08:06:24;;;;;;;38.72;25.25;;;1.20;99.90;;;;;;4896909;28;20234;-79
2023/02/07 08:08:52;;;;;;;36.30;24.17;;;1.20;99.90;;;;;;4895875;28;20234;-77
2023/02/07 08:11:20;;;;;;;30.77;23.10;;;1.30;99.90;;;;;;4942143;28;20233;-80
2023/02/07 08:13:47;;;;;;;28.42;24.02;;;1.30;99.90;;;;;;4920949;29;20237;-76
2023/02/07 08:16:15;;;;;;;32.00;22.55;;;1.30;99.90;;;;;;4925229;28;20272;-81
2023/02/07 08:18:44;;;;;;;29.20;25.13;;;1.30;99.90;;;;;;4918861;29;20234;-77
2023/02/07 08:21:11;;;;;;;34.75;23.00;;;1.40;99.90;;;;;;4913855;28;20257;-81
2023/02/07 08:23:38;;;;;;;37.20;24.10;;;1.40;99.90;;;;;;4914578;28;20701;-80
2023/02/07 08:26:06;;;;;;;33.90;25.05;;;1.40;99.90;;;;;;4913985;28;20436;-76
2023/02/07 08:28:35;;;;;;;30.05;22.65;;;1.50;99.90;;;;;;4914256;28;20233;-76
2023/02/07 08:31:06;;;;;;;32.88;22.92;;;1.50;99.90;;;;;;4913850;29;20560;-76
2023/02/07 08:33:33;;;;;;;27.58;22.83;;;1.50;99.90;;;;;;4913500;28;20221;-76
2023/02/07 08:36:07;;;;;;;31.25;22.05;;;1.60;99.90;;;;;;4913342;29;20602;-76
2023/02/07 08:38:37;;;;;;;26.50;21.05;;;1.60;99.90;;;;;;4914302;28;20233;-76
2023/02/07 08:41:05;;;;;;;24.63;21.17;;;1.60;99.90;;;;;;4904484;28;20253;-80
2023/02/07 08:43:34;;;;;;;34.00;23.48;;;1.70;99.90;;;;;;4904523;29;20225;-79
2023/02/07 08:46:02;;;;;;;31.95;24.83;;;1.70;99.90;;;;;;4913933;28;20287;-80
2023/02/07 08:48:29;;;;;;;32.78;25.27;;;1.70;99.90;;;;;;4915449;28;20679;-80
2023/02/07 08:50:56;;;;;;;31.45;23.98;;;1.80;99.90;;;;;;4915840;28;20257;-76
2023/02/07 08:53:23;;;;;;;26.80;20.30;;;1.80;99.90;;;;;;4918475;28;20599;-76
2023/02/07 08:55:53;;;;;;;29.90;22.92;;;1.90;99.90;;;;;;4923452;28;20257;-76
2023/02/07 08:58:20;;;;;;;27.50;21.10;;;1.90;99.90;;;;;;4921476;28;20238;-79
2023/02/07 09:00:47;;;;;;;23.13;19.17;;;2.00;99.90;;;;;;4924229;28;20314;-79
2023/02/07 09:03:15;;;;;;;23.70;19.60;;;2.00;99.90;;;;;;4920262;28;20726;-76
2023/02/07 09:05:42;;;;;;;26.45;19.17;;;2.10;99.90;;;;;;4919637;29;20230;-79
2023/02/07 09:08:09;;;;;;;31.60;19.38;;;2.10;99.90;;;;;;4917318;28;20221;-79
2023/02/07 09:10:36;;;;;;;27.50;19.15;;;2.20;99.90;;;;;;4917121;29;20272;-76
2023/02/07 09:13:03;;;;;;;23.27;17.55;;;2.20;99.90;;;;;;4917700;29;20347;-76
2023/02/07 09:15:31;;;;;;;26.15;20.13;;;2.30;99.90;;;;;;4915802;29;20347;-79
2023/02/07 09:17:58;;;;;;;25.73;19.02;;;2.30;99.90;;;;;;4913553;29;20236;-79
2023/02/07 09:20:34;;;;;;;22.67;17.50;;;2.40;99.90;;;;;;4913214;28;20234;-79
2023/02/07 09:23:19;;;;;;;25.58;18.75;;;2.40;99.90;;;;;;4913778;28;20602;-79
2023/02/07 09:25:48;;;;;;;28.20;20.83;;;2.50;99.90;;;;;;4913364;28;20225;-76
2023/02/07 09:28:15;;;;;;;27.30;19.30;;;2.50;99.90;;;;;;4913513;28;20244;-76
2023/02/07 09:30:45;;;;;;;25.80;18.38;;;2.60;99.90;;;;;;4913889;29;20237;-79
2023/02/07 09:33:13;;;;;;;26.65;19.15;;;2.60;99.90;;;;;;4913339;28;20240;-78
2023/02/07 09:35:45;;;;;;;27.35;18.33;;;2.70;99.90;;;;;;4913396;28;20264;-80
2023/02/07 09:38:24;;;;;;;24.02;18.60;;;2.70;99.90;;;;;;4913242;28;20241;-80
2023/02/07 09:40:53;;;;;;;21.80;16.40;;;2.70;99.90;;;;;;4913546;28;20526;-80
2023/02/07 09:43:33;;;;;;;22.98;15.75;;;2.80;99.90;;;;;;4914091;28;20233;-79
2023/02/07 09:46:03;;;;;;;21.05;16.20;;;2.80;99.90;;;;;;4913465;28;20237;-80
2023/02/07 09:48:37;;;;;;;22.90;16.80;;;2.90;99.90;;;;;;4914254;28;20225;-76
2023/02/07 09:51:09;;;;;;;19.10;16.20;;;2.90;99.90;;;;;;4914010;28;20794;-80
2023/02/07 09:53:43;;;;;;;21.85;17.20;;;3.00;99.90;;;;;;4914658;28;20245;-80
2023/02/07 09:56:13;;;;;;;19.75;16.48;;;3.10;99.90;;;;;;4913533;28;20234;-79
2023/02/07 09:58:44;;;;;;;19.75;15.02;;;3.10;99.90;;;;;;4914963;28;20225;-81
2023/02/07 10:01:15;;;;;;;28.23;18.52;;;3.10;99.90;;;;;;4916224;28;20260;-81
2023/02/07 10:03:51;;;;;;;22.75;15.82;;;3.20;99.90;;;;;;4916916;28;20287;-79
2023/02/07 10:06:26;;;;;;;21.45;16.17;;;3.20;99.90;;;;;;4916381;28;20256;-79
2023/02/07 10:09:02;;;;;;;23.67;17.05;;;3.30;99.90;;;;;;4916286;28;20279;-76
2023/02/07 10:11:41;;;;;;;18.33;15.60;;;3.30;99.90;;;;;;4916658;28;20225;-76
2023/02/07 10:14:31;;;;;;;33.55;17.55;;;3.30;99.90;;;;;;4913512;28;20220;-76
2023/02/07 10:17:16;;;;;;;22.48;17.85;;;3.30;99.90;;;;;;4905522;28;20332;-75
2023/02/07 10:19:55;;;;;;;21.95;16.25;;;3.30;99.90;;;;;;4911805;28;20321;-79
2023/02/07 10:22:30;;;;;;;21.48;17.50;;;3.40;99.90;;;;;;4914615;29;20237;-76
2023/02/07 10:25:20;;;;;;;21.25;17.45;;;3.40;99.90;;;;;;4897336;29;20229;-79
2023/02/07 10:28:01;;;;;;;24.08;17.83;;;3.40;99.90;;;;;;4896962;28;20318;-77
2023/02/07 10:30:30;;;;;;;23.70;17.77;;;3.50;99.90;;;;;;4897099;28;20230;-79
2023/02/07 10:33:03;;;;;;;23.58;17.30;;;3.50;99.90;;;;;;4914171;28;20223;-80
2023/02/07 10:35:35;;;;;;;23.08;17.75;;;3.60;99.90;;;;;;4915669;28;20307;-80
2023/02/07 10:38:04;;;;;;;26.65;18.15;;;3.60;99.90;;;;;;4920602;28;20233;-80
2023/02/07 10:40:35;;;;;;;24.45;17.23;;;3.50;99.90;;;;;;4966212;28;20226;-80
2023/02/07 10:43:06;;;;;;;21.17;14.95;;;3.60;99.90;;;;;;4974313;28;20253;-79
2023/02/07 10:45:34;;;;;;;19.40;16.50;;;3.60;99.90;;;;;;4915440;28;20612;-79
2023/02/07 10:48:00;;;;;;;19.75;15.75;;;3.70;99.90;;;;;;4971551;28;20217;-79
2023/02/07 10:50:29;;;;;;;22.30;17.33;;;3.70;99.90;;;;;;4915802;28;20238;-79
2023/02/07 10:52:58;;;;;;;23.00;15.73;;;3.80;99.90;;;;;;4915425;28;20236;-79
2023/02/07 10:55:39;;;;;;;20.77;16.55;;;3.80;99.90;;;;;;4911222;28;20667;-79
2023/02/07 10:58:06;;;;;;;22.35;15.55;;;3.80;99.90;;;;;;4896777;28;20229;-79
2023/02/07 11:00:35;;;;;;;28.67;17.65;;;3.90;99.90;;;;;;4896312;28;20242;-79
2023/02/07 11:03:04;;;;;;;23.13;16.67;;;3.90;99.90;;;;;;4895932;28;20237;-79
2023/02/07 11:05:52;;;;;;;26.88;18.65;;;3.90;99.90;;;;;;4897897;28;20304;-79
2023/02/07 11:08:23;;;;;;;21.02;15.40;;;4.00;99.90;;;;;;4946846;28;20276;-76
2023/02/07 11:10:53;;;;;;;19.60;16.25;;;4.00;99.90;;;;;;4955595;28;20245;-79
2023/02/07 11:13:22;;;;;;;25.48;16.90;;;4.00;99.90;;;;;;4973087;28;20226;-76
2023/02/07 11:15:57;;;;;;;19.58;16.27;;;4.10;99.90;;;;;;4942683;28;20240;-76
2023/02/07 11:18:47;;;;;;;19.17;15.43;;;4.10;99.90;;;;;;4998148;28;20309;-80
2023/02/07 11:21:28;;;;;;;20.27;14.65;;;4.10;99.90;;;;;;4906672;28;20235;-76
2023/02/07 11:23:59;;;;;;;21.33;15.27;;;4.10;99.90;;;;;;4923160;28;20681;-76
2023/02/07 11:26:29;;;;;;;20.25;16.65;;;4.20;99.90;;;;;;4915029;28;20325;-76
2023/02/07 11:29:12;;;;;;;17.40;14.63;;;4.20;99.90;;;;;;4915313;29;20222;-80
2023/02/07 11:31:40;;;;;;;17.90;15.55;;;4.20;99.90;;;;;;4914782;28;20308;-79
2023/02/07 11:34:13;;;;;;;20.45;15.95;;;4.20;99.90;;;;;;4919292;28;20229;-78
2023/02/07 11:36:40;;;;;;;20.92;17.15;;;4.30;99.90;;;;;;4904283;28;20265;-79
2023/02/07 11:39:21;;;;;;;18.35;16.08;;;4.30;99.90;;;;;;4915165;28;20229;-76
2023/02/07 11:41:58;;;;;;;20.55;15.20;;;4.30;99.90;;;;;;4915144;28;20236;-78
2023/02/07 11:44:26;;;;;;;18.23;14.90;;;4.30;99.90;;;;;;4914868;28;20612;-78
2023/02/07 11:46:57;;;;;;;21.60;16.42;;;4.30;99.90;;;;;;4915442;28;20246;-79
2023/02/07 11:53:34;;;;;;;;;;;;;;;;;;;;;
2023/02/07 11:56:01;;;;;;;21.15;16.23;;;4.40;99.90;;;;;;4863314;28;20308;-79
2023/02/07 11:58:37;;;;;;;22.80;17.95;;;4.40;99.90;;;;;;4939014;28;20573;-76
2023/02/07 12:01:06;;;;;;;21.67;17.90;;;4.40;99.90;;;;;;4940259;28;20316;-76
2023/02/07 12:03:41;;;;;;;18.90;16.15;;;4.40;99.90;;;;;;4997823;28;20233;-76
2023/02/07 12:06:33;;;;;;;22.48;18.08;;;4.50;99.90;;;;;;4933332;28;20224;-78
2023/02/07 12:09:05;;;;;;;20.20;15.60;;;4.50;99.90;;;;;;4933318;28;20256;-78
2023/02/07 12:11:38;;;;;;;22.52;16.38;;;4.50;99.90;;;;;;4934035;28;20686;-79
2023/02/07 12:14:14;;;;;;;20.17;14.90;;;4.50;99.90;;;;;;4964876;28;20228;-75
2023/02/07 12:16:46;;;;;;;17.90;15.82;;;4.50;99.90;;;;;;4945501;28;20252;-75
2023/02/07 12:19:20;;;;;;;17.65;14.15;;;4.50;99.90;;;;;;4914072;28;20237;-79
2023/02/07 12:22:03;;;;;;;19.48;15.30;;;4.60;99.90;;;;;;4920517;28;20271;-75
2023/02/07 12:24:36;;;;;;;17.33;14.23;;;4.60;99.90;;;;;;4914252;28;20225;-79
2023/02/07 12:27:12;;;;;;;20.98;16.52;;;4.60;99.90;;;;;;4914825;28;20248;-77
2023/02/07 12:29:59;;;;;;;21.02;15.60;;;4.60;99.90;;;;;;4914327;28;20229;-76
2023/02/07 12:32:33;;;;;;;23.33;17.52;;;4.70;99.90;;;;;;4932937;29;20287;-77
2023/02/07 12:35:10;;;;;;;21.80;16.17;;;4.70;99.90;;;;;;4932692;29;20224;-80
2023/02/07 12:37:45;;;;;;;19.75;15.90;;;4.70;99.90;;;;;;4932646;29;20355;-80
2023/02/07 12:40:19;;;;;;;18.35;15.80;;;4.70;99.90;;;;;;4933087;29;20232;-79
2023/02/07 12:42:56;;;;;;;18.67;15.43;;;4.70;99.90;;;;;;4932323;29;20228;-80
2023/02/07 12:45:40;;;;;;;18.90;14.77;;;4.70;99.90;;;;;;4912690;28;20305;-80
2023/02/07 12:48:22;;;;;;;20.33;15.23;;;4.80;99.90;;;;;;4912935;28;20232;-80
2023/02/07 12:51:11;;;;;;;19.00;15.00;;;4.80;99.90;;;;;;4973830;28;20234;-77
2023/02/07 12:54:12;;;;;;;19.92;16.05;;;4.80;99.90;;;;;;5012255;28;20230;-80
2023/02/07 12:56:50;;;;;;;21.15;15.93;;;4.80;99.90;;;;;;5020410;28;20241;-80
2023/02/07 12:59:25;;;;;;;20.38;14.68;;;4.80;99.90;;;;;;5032610;28;20741;-80
2023/02/07 13:02:15;;;;;;;22.48;15.05;;;4.80;99.90;;;;;;5032336;28;20296;-77
2023/02/07 13:05:02;;;;;;;18.55;14.25;;;4.80;99.90;;;;;;5021828;28;20221;-79
2023/02/07 13:07:47;;;;;;;15.50;12.70;;;4.90;99.90;;;;;;5032731;28;20248;-80